sensor_id;sensor_type;location;lat;lon;timestamp;P1;durP1;ratioP1;P2;durP2;ratioP2
40541;SDS011;49288;52.194;5.676;2024-01-11T00:03:39;27.42;;;8.88;;
40541;SDS011;49288;52.194;5.676;2024-01-11T00:08:42;16.33;;;7.38;;
40541;SDS011;49288;52.194;5.676;2024-01-11T00:13:45;17.33;;;6.78;;
40541;SDS011;49288;52.194;5.676;2024-01-11T00:18:48;15.18;;;6.70;;
40541;SDS011;49288;52.194;5.676;2024-01-11T00:23:51;22.40;;;7.63;;
40541;SDS011;49288;52.194;5.676;2024-01-11T00:28:55;17.92;;;6.85;;
40541;SDS011;49288;52.194;5.676;2024-01-11T00:33:58;23.33;;;9.35;;
40541;SDS011;49288;52.194;5.676;2024-01-11T00:39:01;24.60;;;8.57;;
40541;SDS011;49288;52.194;5.676;2024-01-11T00:44:04;16.83;;;6.93;;
40541;SDS011;49288;52.194;5.676;2024-01-11T00:49:08;9.90;;;4.95;;
40541;SDS011;49288;52.194;5.676;2024-01-11T00:54:11;13.25;;;6.05;;
40541;SDS011;49288;52.194;5.676;2024-01-11T00:59:13;12.25;;;5.78;;
40541;SDS011;49288;52.194;5.676;2024-01-11T01:04:16;26.63;;;8.77;;
40541;SDS011;49288;52.194;5.676;2024-01-11T01:09:19;22.55;;;7.68;;
40541;SDS011;49288;52.194;5.676;2024-01-11T01:14:22;27.20;;;8.60;;
40541;SDS011;49288;52.194;5.676;2024-01-11T01:19:24;37.15;;;13.30;;
40541;SDS011;49288;52.194;5.676;2024-01-11T01:24:27;31.63;;;10.40;;
40541;SDS011;49288;52.194;5.676;2024-01-11T01:29:30;32.35;;;11.07;;
40541;SDS011;49288;52.194;5.676;2024-01-11T01:34:32;28.02;;;10.93;;
40541;SDS011;49288;52.194;5.676;2024-01-11T01:39:38;48.28;;;16.02;;
40541;SDS011;49288;52.194;5.676;2024-01-11T01:44:41;26.05;;;10.18;;
40541;SDS011;49288;52.194;5.676;2024-01-11T01:49:44;26.95;;;10.27;;
40541;SDS011;49288;52.194;5.676;2024-01-11T01:54:48;37.97;;;11.48;;
40541;SDS011;49288;52.194;5.676;2024-01-11T01:59:52;15.13;;;5.93;;
40541;SDS011;49288;52.194;5.676;2024-01-11T02:04:55;28.00;;;11.00;;
40541;SDS011;49288;52.194;5.676;2024-01-11T02:10:01;17.65;;;7.47;;
40541;SDS011;49288;52.194;5.676;2024-01-11T02:15:04;31.80;;;9.53;;
40541;SDS011;49288;52.194;5.676;2024-01-11T02:20:07;28.52;;;8.63;;
40541;SDS011;49288;52.194;5.676;2024-01-11T02:25:12;29.73;;;10.55;;
40541;SDS011;49288;52.194;5.676;2024-01-11T02:30:16;12.00;;;4.53;;
40541;SDS011;49288;52.194;5.676;2024-01-11T02:35:19;12.03;;;4.93;;
40541;SDS011;49288;52.194;5.676;2024-01-11T02:40:41;23.55;;;8.35;;
40541;SDS011;49288;52.194;5.676;2024-01-11T02:45:44;23.60;;;8.57;;
40541;SDS011;49288;52.194;5.676;2024-01-11T02:50:47;17.40;;;7.45;;
40541;SDS011;49288;52.194;5.676;2024-01-11T02:55:51;16.42;;;5.45;;
40541;SDS011;49288;52.194;5.676;2024-01-11T03:00:55;22.17;;;6.13;;
40541;SDS011;49288;52.194;5.676;2024-01-11T03:05:57;13.25;;;6.82;;
40541;SDS011;49288;52.194;5.676;2024-01-11T03:11:00;20.58;;;7.72;;
40541;SDS011;49288;52.194;5.676;2024-01-11T03:16:04;16.55;;;7.28;;
40541;SDS011;49288;52.194;5.676;2024-01-11T03:21:07;16.20;;;6.13;;
40541;SDS011;49288;52.194;5.676;2024-01-11T03:26:14;15.93;;;6.22;;
40541;SDS011;49288;52.194;5.676;2024-01-11T03:31:20;20.77;;;7.32;;
40541;SDS011;49288;52.194;5.676;2024-01-11T03:36:23;5.55;;;2.40;;
40541;SDS011;49288;52.194;5.676;2024-01-11T03:41:29;16.35;;;5.43;;
40541;SDS011;49288;52.194;5.676;2024-01-11T03:46:32;13.88;;;6.55;;
40541;SDS011;49288;52.194;5.676;2024-01-11T03:51:34;14.05;;;6.43;;
40541;SDS011;49288;52.194;5.676;2024-01-11T03:56:38;35.08;;;14.27;;
40541;SDS011;49288;52.194;5.676;2024-01-11T04:01:41;74.03;;;24.77;;
40541;SDS011;49288;52.194;5.676;2024-01-11T04:06:45;34.45;;;12.85;;
40541;SDS011;49288;52.194;5.676;2024-01-11T04:11:47;36.65;;;12.85;;
40541;SDS011;49288;52.194;5.676;2024-01-11T04:16:50;33.65;;;12.82;;
40541;SDS011;49288;52.194;5.676;2024-01-11T04:21:53;72.13;;;24.70;;
40541;SDS011;49288;52.194;5.676;2024-01-11T04:26:56;38.83;;;12.32;;
40541;SDS011;49288;52.194;5.676;2024-01-11T04:31:58;56.88;;;18.52;;
40541;SDS011;49288;52.194;5.676;2024-01-11T04:37:02;45.70;;;16.13;;
40541;SDS011;49288;52.194;5.676;2024-01-11T04:42:05;27.85;;;10.98;;
40541;SDS011;49288;52.194;5.676;2024-01-11T04:47:08;51.30;;;18.45;;
40541;SDS011;49288;52.194;5.676;2024-01-11T04:52:11;22.30;;;8.68;;
40541;SDS011;49288;52.194;5.676;2024-01-11T04:57:13;23.58;;;9.23;;
40541;SDS011;49288;52.194;5.676;2024-01-11T05:02:16;48.65;;;17.20;;
40541;SDS011;49288;52.194;5.676;2024-01-11T05:07:19;40.83;;;14.10;;
40541;SDS011;49288;52.194;5.676;2024-01-11T05:12:22;63.97;;;19.95;;
40541;SDS011;49288;52.194;5.676;2024-01-11T05:17:26;33.03;;;12.15;;
40541;SDS011;49288;52.194;5.676;2024-01-11T05:22:30;30.47;;;12.63;;
40541;SDS011;49288;52.194;5.676;2024-01-11T05:27:33;35.20;;;13.43;;
40541;SDS011;49288;52.194;5.676;2024-01-11T05:32:36;66.80;;;18.83;;
40541;SDS011;49288;52.194;5.676;2024-01-11T05:37:39;25.35;;;8.35;;
40541;SDS011;49288;52.194;5.676;2024-01-11T05:42:42;44.17;;;14.15;;
40541;SDS011;49288;52.194;5.676;2024-01-11T05:47:44;29.95;;;11.73;;
40541;SDS011;49288;52.194;5.676;2024-01-11T05:52:47;34.10;;;12.85;;
40541;SDS011;49288;52.194;5.676;2024-01-11T05:57:50;24.02;;;9.98;;
40541;SDS011;49288;52.194;5.676;2024-01-11T06:02:53;44.40;;;16.48;;
40541;SDS011;49288;52.194;5.676;2024-01-11T06:07:56;66.57;;;23.98;;
40541;SDS011;49288;52.194;5.676;2024-01-11T06:12:59;48.75;;;15.65;;
40541;SDS011;49288;52.194;5.676;2024-01-11T06:18:02;47.42;;;15.80;;
40541;SDS011;49288;52.194;5.676;2024-01-11T06:23:05;28.88;;;12.50;;
40541;SDS011;49288;52.194;5.676;2024-01-11T06:28:08;30.35;;;10.15;;
40541;SDS011;49288;52.194;5.676;2024-01-11T06:33:11;33.42;;;12.88;;
40541;SDS011;49288;52.194;5.676;2024-01-11T06:38:14;49.58;;;15.18;;
40541;SDS011;49288;52.194;5.676;2024-01-11T06:43:18;44.95;;;13.85;;
40541;SDS011;49288;52.194;5.676;2024-01-11T06:48:21;32.55;;;6.13;;
40541;SDS011;49288;52.194;5.676;2024-01-11T06:53:24;39.55;;;12.13;;
40541;SDS011;49288;52.194;5.676;2024-01-11T06:58:27;107.57;;;37.25;;
40541;SDS011;49288;52.194;5.676;2024-01-11T07:03:30;103.28;;;32.55;;
40541;SDS011;49288;52.194;5.676;2024-01-11T07:08:32;14.32;;;4.13;;
40541;SDS011;49288;52.194;5.676;2024-01-11T07:13:35;46.63;;;15.27;;
40541;SDS011;49288;52.194;5.676;2024-01-11T07:18:38;64.03;;;20.45;;
40541;SDS011;49288;52.194;5.676;2024-01-11T07:23:41;68.10;;;20.05;;
40541;SDS011;49288;52.194;5.676;2024-01-11T07:28:44;64.55;;;21.52;;
40541;SDS011;49288;52.194;5.676;2024-01-11T07:33:47;68.35;;;24.52;;
40541;SDS011;49288;52.194;5.676;2024-01-11T07:38:50;38.17;;;13.38;;
40541;SDS011;49288;52.194;5.676;2024-01-11T07:43:53;51.45;;;21.00;;
40541;SDS011;49288;52.194;5.676;2024-01-11T07:49:03;59.58;;;21.25;;
40541;SDS011;49288;52.194;5.676;2024-01-11T07:54:07;46.85;;;17.98;;
40541;SDS011;49288;52.194;5.676;2024-01-11T07:59:13;40.97;;;13.93;;
40541;SDS011;49288;52.194;5.676;2024-01-11T08:04:17;85.00;;;27.02;;
40541;SDS011;49288;52.194;5.676;2024-01-11T08:09:20;48.30;;;17.85;;
40541;SDS011;49288;52.194;5.676;2024-01-11T08:14:24;83.38;;;27.27;;
40541;SDS011;49288;52.194;5.676;2024-01-11T08:19:27;71.87;;;25.53;;
40541;SDS011;49288;52.194;5.676;2024-01-11T08:24:30;46.08;;;16.65;;
40541;SDS011;49288;52.194;5.676;2024-01-11T08:29:33;87.60;;;28.15;;
40541;SDS011;49288;52.194;5.676;2024-01-11T08:34:36;98.33;;;28.20;;
40541;SDS011;49288;52.194;5.676;2024-01-11T08:39:39;86.30;;;26.33;;
40541;SDS011;49288;52.194;5.676;2024-01-11T08:44:44;140.02;;;42.50;;
40541;SDS011;49288;52.194;5.676;2024-01-11T08:49:47;116.85;;;34.53;;
40541;SDS011;49288;52.194;5.676;2024-01-11T08:54:50;191.10;;;49.78;;
40541;SDS011;49288;52.194;5.676;2024-01-11T08:59:53;174.15;;;41.88;;
40541;SDS011;49288;52.194;5.676;2024-01-11T09:04:56;236.75;;;43.92;;
40541;SDS011;49288;52.194;5.676;2024-01-11T09:09:59;218.82;;;37.90;;
40541;SDS011;49288;52.194;5.676;2024-01-11T09:15:02;357.95;;;50.88;;
40541;SDS011;49288;52.194;5.676;2024-01-11T09:20:05;362.03;;;53.93;;
40541;SDS011;49288;52.194;5.676;2024-01-11T09:25:09;373.60;;;49.13;;
40541;SDS011;49288;52.194;5.676;2024-01-11T09:30:11;349.30;;;46.70;;
40541;SDS011;49288;52.194;5.676;2024-01-11T09:35:14;364.45;;;50.20;;
40541;SDS011;49288;52.194;5.676;2024-01-11T09:40:18;437.88;;;56.60;;
40541;SDS011;49288;52.194;5.676;2024-01-11T09:45:21;373.58;;;54.75;;
40541;SDS011;49288;52.194;5.676;2024-01-11T09:50:24;244.68;;;35.95;;
40541;SDS011;49288;52.194;5.676;2024-01-11T09:55:27;316.15;;;46.17;;
40541;SDS011;49288;52.194;5.676;2024-01-11T10:00:29;312.08;;;42.42;;
40541;SDS011;49288;52.194;5.676;2024-01-11T10:05:34;319.47;;;46.83;;
40541;SDS011;49288;52.194;5.676;2024-01-11T10:10:38;295.50;;;39.03;;
40541;SDS011;49288;52.194;5.676;2024-01-11T10:15:43;228.07;;;34.13;;
40541;SDS011;49288;52.194;5.676;2024-01-11T10:20:48;260.97;;;37.87;;
40541;SDS011;49288;52.194;5.676;2024-01-11T10:25:51;261.05;;;37.53;;
40541;SDS011;49288;52.194;5.676;2024-01-11T10:30:54;269.40;;;36.50;;
40541;SDS011;49288;52.194;5.676;2024-01-11T10:35:58;251.18;;;34.88;;
40541;SDS011;49288;52.194;5.676;2024-01-11T10:41:01;281.42;;;37.80;;
40541;SDS011;49288;52.194;5.676;2024-01-11T10:46:07;277.42;;;37.80;;
40541;SDS011;49288;52.194;5.676;2024-01-11T10:51:14;271.52;;;36.35;;
40541;SDS011;49288;52.194;5.676;2024-01-11T10:56:19;257.40;;;35.42;;
40541;SDS011;49288;52.194;5.676;2024-01-11T11:01:22;266.52;;;36.22;;
40541;SDS011;49288;52.194;5.676;2024-01-11T11:06:26;294.65;;;39.33;;
40541;SDS011;49288;52.194;5.676;2024-01-11T11:11:31;270.00;;;35.70;;
40541;SDS011;49288;52.194;5.676;2024-01-11T11:16:33;289.65;;;38.20;;
40541;SDS011;49288;52.194;5.676;2024-01-11T11:21:43;288.02;;;37.53;;
40541;SDS011;49288;52.194;5.676;2024-01-11T11:26:47;287.60;;;37.30;;
40541;SDS011;49288;52.194;5.676;2024-01-11T11:32:10;275.63;;;36.72;;
40541;SDS011;49288;52.194;5.676;2024-01-11T11:42:24;320.52;;;41.28;;
40541;SDS011;49288;52.194;5.676;2024-01-11T11:47:37;314.40;;;44.10;;
40541;SDS011;49288;52.194;5.676;2024-01-11T11:52:41;305.58;;;40.80;;
40541;SDS011;49288;52.194;5.676;2024-01-11T11:57:44;305.25;;;40.35;;
40541;SDS011;49288;52.194;5.676;2024-01-11T12:02:47;306.30;;;40.30;;
40541;SDS011;49288;52.194;5.676;2024-01-11T12:07:51;292.67;;;41.47;;
40541;SDS011;49288;52.194;5.676;2024-01-11T12:12:55;299.08;;;43.22;;
40541;SDS011;49288;52.194;5.676;2024-01-11T12:17:59;274.33;;;40.13;;
40541;SDS011;49288;52.194;5.676;2024-01-11T12:23:03;336.83;;;46.63;;
40541;SDS011;49288;52.194;5.676;2024-01-11T12:28:08;325.90;;;42.78;;
40541;SDS011;49288;52.194;5.676;2024-01-11T12:33:11;321.60;;;43.95;;
40541;SDS011;49288;52.194;5.676;2024-01-11T12:38:15;323.77;;;44.78;;
40541;SDS011;49288;52.194;5.676;2024-01-11T12:43:17;281.05;;;42.90;;
40541;SDS011;49288;52.194;5.676;2024-01-11T12:48:23;311.15;;;43.67;;
40541;SDS011;49288;52.194;5.676;2024-01-11T12:53:26;323.40;;;46.90;;
40541;SDS011;49288;52.194;5.676;2024-01-11T12:58:30;324.43;;;45.07;;
40541;SDS011;49288;52.194;5.676;2024-01-11T13:03:37;289.75;;;45.90;;
40541;SDS011;49288;52.194;5.676;2024-01-11T13:08:41;331.45;;;45.95;;
40541;SDS011;49288;52.194;5.676;2024-01-11T13:13:44;348.00;;;47.90;;
40541;SDS011;49288;52.194;5.676;2024-01-11T13:18:50;307.17;;;45.47;;
40541;SDS011;49288;52.194;5.676;2024-01-11T13:23:53;304.35;;;45.30;;
40541;SDS011;49288;52.194;5.676;2024-01-11T13:28:55;303.25;;;44.05;;
40541;SDS011;49288;52.194;5.676;2024-01-11T13:33:58;288.17;;;40.25;;
40541;SDS011;49288;52.194;5.676;2024-01-11T13:39:01;299.70;;;44.58;;
40541;SDS011;49288;52.194;5.676;2024-01-11T13:44:05;295.88;;;43.08;;
40541;SDS011;49288;52.194;5.676;2024-01-11T13:49:08;268.15;;;40.40;;
40541;SDS011;49288;52.194;5.676;2024-01-11T13:54:11;271.23;;;39.90;;
40541;SDS011;49288;52.194;5.676;2024-01-11T13:59:14;247.63;;;38.88;;
40541;SDS011;49288;52.194;5.676;2024-01-11T14:04:17;254.82;;;38.58;;
40541;SDS011;49288;52.194;5.676;2024-01-11T14:09:20;263.80;;;40.40;;
40541;SDS011;49288;52.194;5.676;2024-01-11T14:14:23;253.90;;;41.63;;
40541;SDS011;49288;52.194;5.676;2024-01-11T14:19:26;252.98;;;40.67;;
40541;SDS011;49288;52.194;5.676;2024-01-11T14:24:30;266.87;;;45.37;;
40541;SDS011;49288;52.194;5.676;2024-01-11T14:29:37;252.57;;;43.28;;
40541;SDS011;49288;52.194;5.676;2024-01-11T14:34:42;254.98;;;44.85;;
40541;SDS011;49288;52.194;5.676;2024-01-11T14:39:48;253.50;;;43.03;;
40541;SDS011;49288;52.194;5.676;2024-01-11T14:44:51;253.25;;;41.22;;
40541;SDS011;49288;52.194;5.676;2024-01-11T14:49:54;258.08;;;41.20;;
40541;SDS011;49288;52.194;5.676;2024-01-11T14:54:57;245.65;;;41.38;;
40541;SDS011;49288;52.194;5.676;2024-01-11T15:00:00;229.10;;;37.85;;
40541;SDS011;49288;52.194;5.676;2024-01-11T15:05:03;254.95;;;41.38;;
40541;SDS011;49288;52.194;5.676;2024-01-11T15:10:06;226.25;;;38.38;;
40541;SDS011;49288;52.194;5.676;2024-01-11T15:15:09;247.68;;;41.83;;
40541;SDS011;49288;52.194;5.676;2024-01-11T15:20:12;278.35;;;41.72;;
40541;SDS011;49288;52.194;5.676;2024-01-11T15:25:15;243.68;;;39.38;;
40541;SDS011;49288;52.194;5.676;2024-01-11T15:30:20;239.00;;;38.90;;
40541;SDS011;49288;52.194;5.676;2024-01-11T15:35:24;211.80;;;36.45;;
40541;SDS011;49288;52.194;5.676;2024-01-11T15:40:26;227.90;;;40.30;;
40541;SDS011;49288;52.194;5.676;2024-01-11T15:45:30;260.83;;;40.70;;
40541;SDS011;49288;52.194;5.676;2024-01-11T15:50:35;230.63;;;39.08;;
40541;SDS011;49288;52.194;5.676;2024-01-11T15:55:38;247.43;;;38.55;;
40541;SDS011;49288;52.194;5.676;2024-01-11T16:00:41;237.05;;;40.10;;
40541;SDS011;49288;52.194;5.676;2024-01-11T16:05:46;233.30;;;38.13;;
40541;SDS011;49288;52.194;5.676;2024-01-11T16:10:49;222.38;;;40.70;;
40541;SDS011;49288;52.194;5.676;2024-01-11T16:15:53;244.87;;;38.23;;
40541;SDS011;49288;52.194;5.676;2024-01-11T16:20:58;254.25;;;41.83;;
40541;SDS011;49288;52.194;5.676;2024-01-11T16:26:01;241.57;;;40.80;;
40541;SDS011;49288;52.194;5.676;2024-01-11T16:31:06;254.10;;;40.85;;
40541;SDS011;49288;52.194;5.676;2024-01-11T16:36:09;252.43;;;43.47;;
40541;SDS011;49288;52.194;5.676;2024-01-11T16:41:12;248.27;;;42.85;;
40541;SDS011;49288;52.194;5.676;2024-01-11T16:46:20;238.00;;;43.85;;
40541;SDS011;49288;52.194;5.676;2024-01-11T16:51:27;238.48;;;40.25;;
40541;SDS011;49288;52.194;5.676;2024-01-11T16:56:31;252.80;;;42.42;;
40541;SDS011;49288;52.194;5.676;2024-01-11T17:01:35;275.43;;;43.90;;
40541;SDS011;49288;52.194;5.676;2024-01-11T17:06:39;258.27;;;43.53;;
40541;SDS011;49288;52.194;5.676;2024-01-11T17:11:42;236.07;;;40.85;;
40541;SDS011;49288;52.194;5.676;2024-01-11T17:16:45;262.00;;;44.65;;
40541;SDS011;49288;52.194;5.676;2024-01-11T17:21:48;232.57;;;45.33;;
40541;SDS011;49288;52.194;5.676;2024-01-11T17:26:51;250.70;;;40.72;;
40541;SDS011;49288;52.194;5.676;2024-01-11T17:31:54;203.48;;;39.80;;
40541;SDS011;49288;52.194;5.676;2024-01-11T17:36:57;235.10;;;44.00;;
40541;SDS011;49288;52.194;5.676;2024-01-11T17:42:00;260.70;;;47.20;;
40541;SDS011;49288;52.194;5.676;2024-01-11T17:47:03;264.45;;;45.67;;
40541;SDS011;49288;52.194;5.676;2024-01-11T17:52:06;258.17;;;43.63;;
40541;SDS011;49288;52.194;5.676;2024-01-11T17:57:11;254.95;;;44.88;;
40541;SDS011;49288;52.194;5.676;2024-01-11T18:02:14;270.30;;;46.10;;
40541;SDS011;49288;52.194;5.676;2024-01-11T18:07:17;286.52;;;49.55;;
40541;SDS011;49288;52.194;5.676;2024-01-11T18:12:20;266.67;;;48.63;;
40541;SDS011;49288;52.194;5.676;2024-01-11T18:17:23;256.00;;;46.30;;
40541;SDS011;49288;52.194;5.676;2024-01-11T18:22:26;249.70;;;45.42;;
40541;SDS011;49288;52.194;5.676;2024-01-11T18:27:33;244.77;;;46.60;;
40541;SDS011;49288;52.194;5.676;2024-01-11T18:32:36;237.70;;;45.03;;
40541;SDS011;49288;52.194;5.676;2024-01-11T18:37:38;244.73;;;43.00;;
40541;SDS011;49288;52.194;5.676;2024-01-11T18:42:41;279.45;;;50.75;;
40541;SDS011;49288;52.194;5.676;2024-01-11T18:47:45;249.52;;;47.47;;
40541;SDS011;49288;52.194;5.676;2024-01-11T18:52:48;254.80;;;50.40;;
40541;SDS011;49288;52.194;5.676;2024-01-11T18:57:50;258.70;;;49.25;;
40541;SDS011;49288;52.194;5.676;2024-01-11T19:02:54;269.80;;;50.88;;
40541;SDS011;49288;52.194;5.676;2024-01-11T19:07:57;270.52;;;47.78;;
40541;SDS011;49288;52.194;5.676;2024-01-11T19:13:01;245.43;;;47.13;;
40541;SDS011;49288;52.194;5.676;2024-01-11T19:18:04;248.43;;;49.92;;
40541;SDS011;49288;52.194;5.676;2024-01-11T19:23:11;237.55;;;47.97;;
40541;SDS011;49288;52.194;5.676;2024-01-11T19:28:14;230.18;;;47.65;;
40541;SDS011;49288;52.194;5.676;2024-01-11T19:33:17;244.75;;;45.05;;
40541;SDS011;49288;52.194;5.676;2024-01-11T19:38:20;229.07;;;45.45;;
40541;SDS011;49288;52.194;5.676;2024-01-11T19:43:23;246.65;;;47.58;;
40541;SDS011;49288;52.194;5.676;2024-01-11T19:48:26;236.95;;;46.75;;
40541;SDS011;49288;52.194;5.676;2024-01-11T19:53:29;267.02;;;48.75;;
40541;SDS011;49288;52.194;5.676;2024-01-11T19:58:33;234.77;;;44.80;;
40541;SDS011;49288;52.194;5.676;2024-01-11T20:03:38;212.25;;;43.13;;
40541;SDS011;49288;52.194;5.676;2024-01-11T20:08:42;233.23;;;47.83;;
40541;SDS011;49288;52.194;5.676;2024-01-11T20:13:45;217.50;;;44.53;;
40541;SDS011;49288;52.194;5.676;2024-01-11T20:18:48;222.02;;;45.05;;
40541;SDS011;49288;52.194;5.676;2024-01-11T20:23:51;207.75;;;43.83;;
40541;SDS011;49288;52.194;5.676;2024-01-11T20:28:54;222.68;;;45.60;;
40541;SDS011;49288;52.194;5.676;2024-01-11T20:33:57;228.90;;;46.03;;
40541;SDS011;49288;52.194;5.676;2024-01-11T20:39:04;243.68;;;44.95;;
40541;SDS011;49288;52.194;5.676;2024-01-11T20:44:08;221.15;;;45.13;;
40541;SDS011;49288;52.194;5.676;2024-01-11T20:49:11;211.10;;;42.40;;
40541;SDS011;49288;52.194;5.676;2024-01-11T20:54:14;214.75;;;43.33;;
40541;SDS011;49288;52.194;5.676;2024-01-11T20:59:18;201.48;;;44.47;;
40541;SDS011;49288;52.194;5.676;2024-01-11T21:04:21;186.38;;;39.42;;
40541;SDS011;49288;52.194;5.676;2024-01-11T21:09:24;192.73;;;41.92;;
40541;SDS011;49288;52.194;5.676;2024-01-11T21:14:27;192.80;;;43.88;;
40541;SDS011;49288;52.194;5.676;2024-01-11T21:19:31;184.10;;;40.30;;
40541;SDS011;49288;52.194;5.676;2024-01-11T21:24:34;197.80;;;41.92;;
40541;SDS011;49288;52.194;5.676;2024-01-11T21:29:38;203.17;;;47.23;;
40541;SDS011;49288;52.194;5.676;2024-01-11T21:34:41;195.25;;;45.53;;
40541;SDS011;49288;52.194;5.676;2024-01-11T21:39:44;193.95;;;43.78;;
40541;SDS011;49288;52.194;5.676;2024-01-11T21:44:49;200.90;;;43.10;;
40541;SDS011;49288;52.194;5.676;2024-01-11T21:49:53;188.45;;;40.83;;
40541;SDS011;49288;52.194;5.676;2024-01-11T21:54:57;191.95;;;40.05;;
40541;SDS011;49288;52.194;5.676;2024-01-11T21:59:59;186.63;;;44.35;;
40541;SDS011;49288;52.194;5.676;2024-01-11T22:05:06;169.07;;;38.25;;
40541;SDS011;49288;52.194;5.676;2024-01-11T22:10:10;190.90;;;42.50;;
40541;SDS011;49288;52.194;5.676;2024-01-11T22:15:12;175.27;;;38.95;;
40541;SDS011;49288;52.194;5.676;2024-01-11T22:20:16;181.43;;;42.03;;
40541;SDS011;49288;52.194;5.676;2024-01-11T22:25:21;189.73;;;43.53;;
40541;SDS011;49288;52.194;5.676;2024-01-11T22:30:24;202.85;;;43.78;;
40541;SDS011;49288;52.194;5.676;2024-01-11T22:35:46;194.57;;;44.05;;
40541;SDS011;49288;52.194;5.676;2024-01-11T22:40:49;183.45;;;40.65;;
40541;SDS011;49288;52.194;5.676;2024-01-11T22:45:52;185.48;;;42.50;;
40541;SDS011;49288;52.194;5.676;2024-01-11T22:50:55;167.35;;;39.38;;
40541;SDS011;49288;52.194;5.676;2024-01-11T22:55:59;176.63;;;40.25;;
40541;SDS011;49288;52.194;5.676;2024-01-11T23:01:04;184.35;;;41.63;;
40541;SDS011;49288;52.194;5.676;2024-01-11T23:06:08;172.15;;;38.25;;
40541;SDS011;49288;52.194;5.676;2024-01-11T23:11:11;180.60;;;40.83;;
40541;SDS011;49288;52.194;5.676;2024-01-11T23:16:14;159.40;;;38.55;;
40541;SDS011;49288;52.194;5.676;2024-01-11T23:21:17;168.02;;;39.83;;
40541;SDS011;49288;52.194;5.676;2024-01-11T23:26:19;158.23;;;38.42;;
40541;SDS011;49288;52.194;5.676;2024-01-11T23:31:22;169.50;;;40.38;;
40541;SDS011;49288;52.194;5.676;2024-01-11T23:36:25;149.27;;;36.95;;
40541;SDS011;49288;52.194;5.676;2024-01-11T23:41:28;155.52;;;36.63;;
40541;SDS011;49288;52.194;5.676;2024-01-11T23:46:32;139.13;;;37.03;;
40541;SDS011;49288;52.194;5.676;2024-01-11T23:51:36;155.30;;;36.75;;
40541;SDS011;49288;52.194;5.676;2024-01-11T23:56:39;147.85;;;34.47;;
